Time;durP1;ratioP1;P1;durP2;ratioP2;P2;SDS_P1;SDS_P2;PMS_P1;PMS_P2;Temp;Humidity;BMP_temperature;BMP_pressure;BME280_temperature;BME280_humidity;BME280_pressure;Samples;Min_cycle;Max_cycle;Signal;HPM_P1;HPM_P2
2022/04/19 00:00:14;;;;;;;10.90;8.80;;;13.40;99.90;;;;;;1040098;28;20013;-66
2022/04/19 00:00:45;;;;;;;11.52;8.35;;;13.40;99.90;;;;;;1039928;28;20533;-63
2022/04/19 00:01:16;;;;;;;10.70;8.53;;;13.40;99.90;;;;;;1040136;28;20067;-65
2022/04/19 00:01:48;;;;;;;14.00;9.85;;;13.40;99.90;;;;;;1039926;28;20101;-64
2022/04/19 00:02:19;;;;;;;12.85;10.15;;;13.40;99.90;;;;;;1040008;28;20480;-64
2022/04/19 00:02:49;;;;;;;10.40;9.23;;;13.40;99.90;;;;;;1039806;28;20684;-65
2022/04/19 00:03:20;;;;;;;11.37;8.83;;;13.40;99.90;;;;;;1040041;28;20012;-65
2022/04/19 00:03:51;;;;;;;10.00;8.88;;;13.30;99.90;;;;;;1039897;28;20029;-65
2022/04/19 00:04:21;;;;;;;12.20;9.47;;;13.30;99.90;;;;;;1039692;28;20032;-64
2022/04/19 00:04:52;;;;;;;11.73;9.20;;;13.30;99.90;;;;;;1039460;28;20048;-63
2022/04/19 00:05:23;;;;;;;10.90;8.67;;;13.30;99.90;;;;;;1039850;28;20037;-64
2022/04/19 00:05:53;;;;;;;10.10;8.43;;;13.30;99.90;;;;;;1035267;28;20045;-64
2022/04/19 00:06:24;;;;;;;11.00;8.67;;;13.30;99.90;;;;;;1039758;28;20045;-65
2022/04/19 00:06:54;;;;;;;12.20;10.03;;;13.30;99.90;;;;;;1039563;28;20027;-64
2022/04/19 00:07:25;;;;;;;10.63;9.40;;;13.30;99.90;;;;;;1039721;28;20022;-65
2022/04/19 00:07:56;;;;;;;12.73;8.75;;;13.30;99.90;;;;;;1035322;28;20049;-64
2022/04/19 00:08:26;;;;;;;11.43;9.10;;;13.30;99.90;;;;;;1035618;28;20096;-64
2022/04/19 00:08:57;;;;;;;11.10;8.70;;;13.30;99.90;;;;;;1035559;28;20025;-63
2022/04/19 00:09:27;;;;;;;10.70;8.77;;;13.30;99.90;;;;;;1031949;28;20018;-65
2022/04/19 00:09:58;;;;;;;11.20;9.73;;;13.30;99.90;;;;;;1039616;28;20404;-63
2022/04/19 00:10:29;;;;;;;10.83;8.83;;;13.40;99.90;;;;;;1039755;28;20108;-63
2022/04/19 00:10:59;;;;;;;10.90;8.88;;;13.40;99.90;;;;;;1039612;28;20047;-66
2022/04/19 00:11:30;;;;;;;12.07;9.50;;;13.40;99.90;;;;;;1040008;28;20025;-64
2022/04/19 00:12:01;;;;;;;12.70;8.83;;;13.40;99.90;;;;;;1039972;28;20072;-65
2022/04/19 00:12:32;;;;;;;11.97;7.67;;;13.40;99.90;;;;;;1039542;28;20117;-64
2022/04/19 00:13:05;;;;;;;11.63;8.63;;;13.40;99.90;;;;;;1039704;28;20537;-64
2022/04/19 00:13:35;;;;;;;10.02;8.32;;;13.40;99.90;;;;;;1039558;28;20022;-64
2022/04/19 00:14:07;;;;;;;11.53;8.97;;;13.40;99.90;;;;;;1039683;28;20049;-66
2022/04/19 00:14:38;;;;;;;10.60;8.02;;;13.40;99.90;;;;;;1039576;28;20581;-64
2022/04/19 00:15:09;;;;;;;11.02;8.02;;;13.40;99.90;;;;;;1039696;28;20561;-64
2022/04/19 00:15:40;;;;;;;10.77;8.27;;;13.40;99.90;;;;;;1039537;28;20111;-65
2022/04/19 00:16:10;;;;;;;10.37;8.00;;;13.40;99.90;;;;;;1039400;28;20267;-65
2022/04/19 00:16:41;;;;;;;10.63;8.20;;;13.40;99.90;;;;;;1040118;28;20010;-65
2022/04/19 00:17:11;;;;;;;11.00;7.67;;;13.40;99.90;;;;;;1039804;28;20014;-65
2022/04/19 00:17:42;;;;;;;10.63;8.17;;;13.40;99.90;;;;;;1039436;28;20020;-65
2022/04/19 00:18:14;;;;;;;10.87;8.10;;;13.40;99.90;;;;;;1039449;28;20557;-64
2022/04/19 00:18:44;;;;;;;8.70;7.75;;;13.40;99.90;;;;;;1039456;28;20141;-65
2022/04/19 00:19:15;;;;;;;9.33;7.23;;;13.40;99.90;;;;;;1039528;28;20083;-65
2022/04/19 00:19:45;;;;;;;12.07;7.80;;;13.40;99.90;;;;;;1039608;28;20006;-63
2022/04/19 00:20:16;;;;;;;9.90;8.03;;;13.30;99.90;;;;;;1039596;28;20020;-65
2022/04/19 00:20:47;;;;;;;10.90;7.83;;;13.40;99.90;;;;;;1039625;28;20483;-64
2022/04/19 00:21:18;;;;;;;22.00;7.70;;;13.40;99.90;;;;;;1040021;28;20014;-64
2022/04/19 00:21:49;;;;;;;8.95;7.32;;;13.30;99.90;;;;;;1039876;28;20694;-63
2022/04/19 00:22:19;;;;;;;10.27;8.07;;;13.30;99.90;;;;;;1039977;28;20457;-63
2022/04/19 00:22:50;;;;;;;8.40;7.00;;;13.30;99.90;;;;;;1039903;28;20381;-65
2022/04/19 00:23:21;;;;;;;9.98;7.68;;;13.30;99.90;;;;;;1039859;28;20009;-63
2022/04/19 00:23:51;;;;;;;10.00;7.67;;;13.30;99.90;;;;;;1039537;28;20017;-65
2022/04/19 00:24:22;;;;;;;9.43;7.90;;;13.30;99.90;;;;;;1039384;28;20022;-63
2022/04/19 00:24:53;;;;;;;9.80;7.90;;;13.30;99.90;;;;;;1039519;28;20021;-64
2022/04/19 00:25:23;;;;;;;9.47;7.63;;;13.30;99.90;;;;;;1039662;28;20016;-67
2022/04/19 00:25:54;;;;;;;10.33;7.27;;;13.30;99.90;;;;;;1039510;28;20021;-64
2022/04/19 00:26:25;;;;;;;16.00;7.50;;;13.30;99.90;;;;;;1040071;28;20017;-63
2022/04/19 00:26:55;;;;;;;9.40;7.10;;;13.30;99.90;;;;;;1039872;28;20048;-64
2022/04/19 00:27:26;;;;;;;10.03;7.67;;;13.30;99.90;;;;;;1039405;28;20029;-66
2022/04/19 00:27:56;;;;;;;8.93;7.47;;;13.30;99.90;;;;;;1039603;28;20040;-63
2022/04/19 00:28:27;;;;;;;10.13;7.17;;;13.30;99.90;;;;;;1039562;28;20446;-65
2022/04/19 00:28:57;;;;;;;9.13;7.83;;;13.20;99.90;;;;;;1039592;28;20059;-63
2022/04/19 00:29:28;;;;;;;11.30;7.07;;;13.20;99.90;;;;;;1039932;28;20013;-65
2022/04/19 00:29:59;;;;;;;9.73;7.73;;;13.20;99.90;;;;;;1039445;28;20472;-63
2022/04/19 00:30:29;;;;;;;9.73;7.43;;;13.20;99.90;;;;;;1039575;28;20445;-63
2022/04/19 00:31:00;;;;;;;8.30;7.23;;;13.20;99.90;;;;;;1035452;28;20043;-64
2022/04/19 00:31:30;;;;;;;10.43;8.00;;;13.20;99.90;;;;;;1035620;28;20361;-65
2022/04/19 00:32:01;;;;;;;12.07;7.63;;;13.20;99.90;;;;;;1035450;28;20539;-64
2022/04/19 00:32:32;;;;;;;10.70;7.27;;;13.20;99.90;;;;;;1031521;28;20014;-65
2022/04/19 00:33:04;;;;;;;9.73;7.97;;;13.20;99.90;;;;;;1035286;28;20434;-64
2022/04/19 00:33:37;;;;;;;9.65;8.25;;;13.20;99.90;;;;;;1035636;28;20010;-64
2022/04/19 00:34:07;;;;;;;10.45;7.60;;;13.20;99.90;;;;;;1038810;28;20041;-64
2022/04/19 00:34:41;;;;;;;9.83;7.37;;;13.20;99.90;;;;;;1035929;28;20032;-63
2022/04/19 00:35:11;;;;;;;10.70;7.50;;;13.20;99.90;;;;;;1035575;28;20021;-64
2022/04/19 00:35:42;;;;;;;9.50;8.03;;;13.20;99.90;;;;;;1035867;28;20018;-64
2022/04/19 00:36:13;;;;;;;9.30;6.80;;;13.10;99.90;;;;;;1035631;28;20355;-65
2022/04/19 00:36:44;;;;;;;8.00;7.20;;;13.10;99.90;;;;;;1035845;28;20104;-63
2022/04/19 00:37:15;;;;;;;9.13;7.47;;;13.10;99.90;;;;;;1035652;28;20018;-64
2022/04/19 00:37:45;;;;;;;11.70;7.47;;;13.10;99.90;;;;;;1035435;28;20029;-66
2022/04/19 00:38:16;;;;;;;8.43;7.00;;;13.10;99.90;;;;;;1035191;28;20028;-64
2022/04/19 00:38:47;;;;;;;8.53;7.33;;;13.10;99.90;;;;;;1036081;28;20018;-65
2022/04/19 00:39:18;;;;;;;9.63;7.18;;;13.10;99.90;;;;;;1039406;28;20009;-65
2022/04/19 00:39:48;;;;;;;11.03;7.83;;;13.10;99.90;;;;;;1039616;28;20017;-63
2022/04/19 00:40:19;;;;;;;10.63;7.43;;;13.10;99.90;;;;;;1039830;28;20021;-63
2022/04/19 00:40:49;;;;;;;9.17;7.87;;;13.10;99.90;;;;;;1039634;28;20037;-66
2022/04/19 00:41:20;;;;;;;10.63;8.20;;;13.10;99.90;;;;;;1039808;28;20041;-64
2022/04/19 00:41:50;;;;;;;8.93;7.53;;;13.10;99.90;;;;;;1039436;28;20022;-64
2022/04/19 00:42:21;;;;;;;10.47;7.73;;;13.10;99.90;;;;;;1039439;28;20022;-63
2022/04/19 00:42:54;;;;;;;12.10;7.90;;;13.00;99.90;;;;;;1039573;28;20043;-63
2022/04/19 00:43:25;;;;;;;8.40;7.22;;;13.00;99.90;;;;;;1040326;28;20108;-63
2022/04/19 00:43:56;;;;;;;10.48;8.07;;;13.00;99.90;;;;;;1039769;28;20334;-63
2022/04/19 00:44:26;;;;;;;9.07;7.07;;;13.00;99.90;;;;;;1039755;28;20433;-65
2022/04/19 00:45:03;;;;;;;10.23;7.53;;;13.00;99.90;;;;;;1039415;28;20457;-65
2022/04/19 00:45:34;;;;;;;8.32;6.88;;;13.00;99.90;;;;;;1039309;28;20121;-65
2022/04/19 00:46:05;;;;;;;10.90;8.00;;;13.00;99.90;;;;;;1039669;28;20435;-65
2022/04/19 00:46:35;;;;;;;12.80;7.83;;;13.00;99.90;;;;;;1039501;28;20479;-64
2022/04/19 00:47:08;;;;;;;10.87;7.77;;;13.00;99.90;;;;;;1039899;28;20026;-65
2022/04/19 00:47:40;;;;;;;9.02;7.22;;;13.00;99.90;;;;;;1039696;28;20021;-64
2022/04/19 00:48:10;;;;;;;8.65;6.50;;;13.00;99.90;;;;;;1039461;28;20111;-64
2022/04/19 00:48:42;;;;;;;8.43;6.67;;;13.00;99.90;;;;;;1039574;28;20013;-63
2022/04/19 00:49:13;;;;;;;10.52;7.25;;;13.00;99.90;;;;;;1035256;28;20101;-64
2022/04/19 00:49:43;;;;;;;8.63;7.60;;;13.00;99.90;;;;;;1031271;28;20026;-63
2022/04/19 00:50:14;;;;;;;9.17;7.20;;;13.00;99.90;;;;;;1031210;28;20021;-64
2022/04/19 00:50:45;;;;;;;9.67;7.67;;;13.00;99.90;;;;;;1027378;28;20023;-64
2022/04/19 00:51:17;;;;;;;8.27;7.03;;;13.00;99.90;;;;;;1031400;28;20022;-63
2022/04/19 00:51:47;;;;;;;9.52;7.22;;;13.00;99.90;;;;;;1034970;28;20022;-63
2022/04/19 00:52:21;;;;;;;8.83;7.60;;;13.00;99.90;;;;;;1035635;28;20251;-63
2022/04/19 00:52:52;;;;;;;8.60;7.38;;;13.00;99.90;;;;;;1039458;28;20028;-64
2022/04/19 00:53:26;;;;;;;10.10;7.72;;;13.00;99.90;;;;;;1035749;28;20025;-63
2022/04/19 00:53:57;;;;;;;9.05;6.78;;;13.00;99.90;;;;;;1039831;28;20123;-65
2022/04/19 00:54:29;;;;;;;11.32;7.93;;;13.00;99.90;;;;;;1039398;28;20014;-64
2022/04/19 00:55:02;;;;;;;9.90;6.75;;;13.00;99.90;;;;;;1039747;28;20459;-62
2022/04/19 00:55:33;;;;;;;7.95;7.15;;;13.00;99.90;;;;;;1039273;28;20045;-64
2022/04/19 00:56:04;;;;;;;8.73;7.32;;;13.00;99.90;;;;;;1039739;28;20018;-65
2022/04/19 00:56:35;;;;;;;12.30;7.25;;;13.00;99.90;;;;;;1039357;28;20021;-64
2022/04/19 00:57:05;;;;;;;11.20;7.37;;;13.00;99.90;;;;;;1039612;28;20022;-64
2022/04/19 00:57:41;;;;;;;9.00;7.17;;;13.00;99.90;;;;;;1039527;28;20097;-63
2022/04/19 00:58:13;;;;;;;11.38;7.20;;;13.00;99.90;;;;;;1039806;28;20252;-66
2022/04/19 00:58:43;;;;;;;8.35;7.18;;;13.00;99.90;;;;;;1039071;28;20044;-65
2022/04/19 00:59:14;;;;;;;10.40;6.90;;;13.00;99.90;;;;;;1039419;28;20450;-64
2022/04/19 00:59:46;;;;;;;8.83;7.30;;;13.00;99.90;;;;;;1039313;28;20021;-63
2022/04/19 01:00:17;;;;;;;9.35;7.28;;;13.00;99.90;;;;;;1039501;28;20024;-63
2022/04/19 01:00:50;;;;;;;10.80;8.10;;;13.00;99.90;;;;;;1039823;28;20028;-63
2022/04/19 01:01:20;;;;;;;7.78;6.65;;;13.00;99.90;;;;;;1039957;28;20071;-63
2022/04/19 01:01:51;;;;;;;9.27;6.97;;;12.90;99.90;;;;;;1039450;28;20096;-63
2022/04/19 01:02:25;;;;;;;9.27;6.90;;;12.90;99.90;;;;;;1039933;28;20013;-62
2022/04/19 01:02:55;;;;;;;8.27;6.78;;;12.90;99.90;;;;;;1039517;28;20014;-63
2022/04/19 01:03:26;;;;;;;10.13;6.87;;;12.90;99.90;;;;;;1039619;28;20017;-66
2022/04/19 01:03:58;;;;;;;10.70;6.60;;;12.90;99.90;;;;;;1039456;28;20018;-64
2022/04/19 01:04:29;;;;;;;11.25;7.07;;;12.90;99.90;;;;;;1039332;28;20020;-65
2022/04/19 01:05:00;;;;;;;9.68;7.10;;;12.90;99.90;;;;;;1039556;28;20465;-65
2022/04/19 01:05:30;;;;;;;9.17;7.07;;;12.90;99.90;;;;;;1039452;28;20509;-63
2022/04/19 01:06:01;;;;;;;8.50;6.97;;;12.90;99.90;;;;;;1039252;28;20014;-63
2022/04/19 01:06:32;;;;;;;8.87;7.20;;;12.90;99.90;;;;;;1039383;28;20512;-63
2022/04/19 01:07:03;;;;;;;10.33;7.10;;;12.90;99.90;;;;;;1039563;28;20012;-65
2022/04/19 01:07:36;;;;;;;8.40;7.13;;;12.90;99.90;;;;;;1039390;28;20093;-64
2022/04/19 01:08:07;;;;;;;8.38;7.38;;;12.90;99.90;;;;;;1039795;28;20452;-64
2022/04/19 01:08:38;;;;;;;12.05;7.50;;;12.90;99.90;;;;;;1039857;28;20354;-64
2022/04/19 01:09:09;;;;;;;8.95;7.07;;;12.90;99.90;;;;;;1039445;28;20024;-64
2022/04/19 01:09:39;;;;;;;8.43;7.50;;;12.90;99.90;;;;;;1039384;28;20013;-64
2022/04/19 01:10:10;;;;;;;7.93;7.10;;;12.80;99.90;;;;;;1039305;28;20072;-66
2022/04/19 01:10:43;;;;;;;9.43;7.30;;;12.90;99.90;;;;;;1039617;28;20105;-64
2022/04/19 01:13:43;;;;;;;8.30;6.97;;;12.80;99.90;;;;;;1039924;28;20033;-65
2022/04/19 01:14:14;;;;;;;10.70;7.47;;;12.80;99.90;;;;;;1039633;28;20048;-64
2022/04/19 01:14:46;;;;;;;7.17;6.07;;;12.80;99.90;;;;;;1039926;28;20029;-66
2022/04/19 01:15:17;;;;;;;7.72;6.88;;;12.80;99.90;;;;;;1039730;28;20063;-64
2022/04/19 01:15:48;;;;;;;10.63;8.23;;;12.80;99.90;;;;;;1039610;28;20025;-65
2022/04/19 01:16:19;;;;;;;9.50;7.22;;;12.80;99.90;;;;;;1039751;28;20260;-65
2022/04/19 01:16:50;;;;;;;7.93;6.60;;;12.80;99.90;;;;;;1039839;28;20062;-64
2022/04/19 01:17:21;;;;;;;8.10;6.82;;;12.80;99.90;;;;;;1039739;28;20016;-64
2022/04/19 01:17:52;;;;;;;7.53;6.70;;;12.80;99.90;;;;;;1039833;28;20477;-64
2022/04/19 01:18:24;;;;;;;8.20;7.28;;;12.80;99.90;;;;;;1039634;28;20024;-63
2022/04/19 01:18:56;;;;;;;7.82;6.78;;;12.80;99.90;;;;;;1039922;28;20017;-63
2022/04/19 01:19:27;;;;;;;8.50;7.60;;;12.80;99.90;;;;;;1039109;28;20021;-65
2022/04/19 01:19:58;;;;;;;7.40;6.63;;;12.80;99.90;;;;;;1039472;28;20018;-64
2022/04/19 01:20:29;;;;;;;11.87;7.20;;;12.80;99.90;;;;;;1039125;28;20013;-64
2022/04/19 01:20:59;;;;;;;8.02;6.50;;;12.80;99.90;;;;;;1039564;28;20017;-64
2022/04/19 01:21:43;;;;;;;8.73;7.27;;;12.80;99.90;;;;;;1039057;28;20021;-65
2022/04/19 01:22:14;;;;;;;8.55;6.38;;;12.70;99.90;;;;;;1039354;28;20022;-64
2022/04/19 01:22:48;;;;;;;8.17;6.77;;;12.70;99.90;;;;;;1039490;28;20009;-65
2022/04/19 01:23:20;;;;;;;7.65;6.18;;;12.70;99.90;;;;;;1039356;28;20172;-65
2022/04/19 01:23:51;;;;;;;9.57;7.30;;;12.70;99.90;;;;;;1039241;28;20548;-64
2022/04/19 01:24:23;;;;;;;7.93;6.82;;;12.70;99.90;;;;;;1039365;28;20068;-64
2022/04/19 01:24:54;;;;;;;8.10;6.88;;;12.70;99.90;;;;;;1039230;28;20229;-64
2022/04/19 01:25:24;;;;;;;9.80;6.70;;;12.70;99.90;;;;;;1039584;28;20104;-64
2022/04/19 01:25:57;;;;;;;9.50;6.60;;;12.70;99.90;;;;;;1039266;28;20044;-63
2022/04/19 01:26:27;;;;;;;9.38;7.05;;;12.70;99.90;;;;;;1039415;28;20022;-63
2022/04/19 01:26:58;;;;;;;10.00;6.80;;;12.70;99.90;;;;;;1039410;28;20057;-65
2022/04/19 01:27:28;;;;;;;8.10;6.90;;;12.70;99.90;;;;;;1039185;28;20032;-63
2022/04/19 01:27:59;;;;;;;8.03;6.70;;;12.70;99.90;;;;;;1039527;28;20032;-63
2022/04/19 01:28:30;;;;;;;8.60;6.43;;;12.70;99.90;;;;;;1039408;28;20489;-64
2022/04/19 01:29:00;;;;;;;10.17;6.53;;;12.70;99.90;;;;;;1039392;28;20380;-64
2022/04/19 01:29:33;;;;;;;8.20;7.30;;;12.70;99.90;;;;;;1039420;28;20113;-64
2022/04/19 01:30:06;;;;;;;8.43;6.80;;;12.70;99.90;;;;;;1039429;28;20404;-64
2022/04/19 01:30:38;;;;;;;7.95;6.10;;;12.70;99.90;;;;;;1039194;28;20029;-64
2022/04/19 01:31:09;;;;;;;7.78;6.80;;;12.70;99.90;;;;;;1039460;28;20655;-64
2022/04/19 01:31:43;;;;;;;8.85;6.78;;;12.70;99.90;;;;;;1039340;28;20021;-64
2022/04/19 01:32:14;;;;;;;8.18;6.55;;;12.70;99.90;;;;;;1039202;28;20600;-63
2022/04/19 01:32:45;;;;;;;10.25;7.45;;;12.70;99.90;;;;;;1039380;28;20021;-64
2022/04/19 01:33:15;;;;;;;7.37;6.40;;;12.70;99.90;;;;;;1038735;28;20404;-64
2022/04/19 01:33:46;;;;;;;8.30;6.57;;;12.70;99.90;;;;;;1035452;28;20428;-64
2022/04/19 01:34:17;;;;;;;8.30;6.70;;;12.70;99.90;;;;;;1039373;28;20508;-64
2022/04/19 01:34:47;;;;;;;8.57;6.38;;;12.70;99.90;;;;;;1039650;28;20486;-64
2022/04/19 01:35:21;;;;;;;8.57;7.03;;;12.70;99.90;;;;;;1039611;28;20521;-63
2022/04/19 01:35:51;;;;;;;6.38;5.78;;;12.70;99.90;;;;;;1039591;28;20049;-64
2022/04/19 01:36:22;;;;;;;6.50;5.70;;;12.70;99.90;;;;;;1039688;28;20022;-64
2022/04/19 01:36:52;;;;;;;8.33;6.37;;;12.70;99.90;;;;;;1039664;28;20108;-63
2022/04/19 01:37:23;;;;;;;8.60;6.67;;;12.70;99.90;;;;;;1039748;28;20018;-63
2022/04/19 01:37:53;;;;;;;7.57;6.70;;;12.70;99.90;;;;;;1039655;28;20018;-64
2022/04/19 01:38:24;;;;;;;9.53;6.70;;;12.70;99.90;;;;;;1039732;28;20021;-65
2022/04/19 01:38:55;;;;;;;8.87;7.13;;;12.70;99.90;;;;;;1039425;28;20017;-65
2022/04/19 01:40:19;;;;;;;8.02;6.55;;;12.70;99.90;;;;;;1039457;28;20235;-63
2022/04/19 01:40:49;;;;;;;9.43;7.18;;;12.60;99.90;;;;;;1035139;28;20524;-63
2022/04/19 01:41:20;;;;;;;9.83;7.10;;;12.60;99.90;;;;;;1035382;28;20772;-64
2022/04/19 01:41:50;;;;;;;8.00;6.50;;;12.60;99.90;;;;;;1035145;28;20121;-64
2022/04/19 01:42:21;;;;;;;8.67;6.80;;;12.60;99.90;;;;;;1035338;28;20037;-64
2022/04/19 01:42:54;;;;;;;7.70;6.90;;;12.60;99.90;;;;;;1035049;28;20025;-63
2022/04/19 01:43:25;;;;;;;11.93;6.97;;;12.60;99.90;;;;;;1034975;28;20018;-65
2022/04/19 01:43:55;;;;;;;7.60;6.67;;;12.60;99.90;;;;;;1038027;28;20026;-63
2022/04/19 01:44:26;;;;;;;8.73;6.37;;;12.60;99.90;;;;;;1039301;28;20025;-65
2022/04/19 01:44:57;;;;;;;10.13;6.60;;;12.60;99.90;;;;;;1039604;28;20049;-64
2022/04/19 01:45:30;;;;;;;8.48;6.65;;;12.60;99.90;;;;;;1039489;28;20022;-63
2022/04/19 01:46:00;;;;;;;10.85;6.65;;;12.60;99.90;;;;;;1039419;28;20018;-63
2022/04/19 01:46:34;;;;;;;8.23;6.90;;;12.60;99.90;;;;;;1039354;28;20541;-63
2022/04/19 01:47:08;;;;;;;7.00;5.82;;;12.60;99.90;;;;;;1039333;28;20547;-63
2022/04/19 01:47:42;;;;;;;8.70;6.90;;;12.60;99.90;;;;;;1039237;28;20459;-64
2022/04/19 01:48:13;;;;;;;7.35;6.45;;;12.60;99.90;;;;;;1039498;28;20021;-63
2022/04/19 01:48:43;;;;;;;9.13;6.90;;;12.60;99.90;;;;;;1039296;28;20022;-64
2022/04/19 01:49:14;;;;;;;7.77;6.67;;;12.60;99.90;;;;;;1039696;28;20093;-64
2022/04/19 01:49:44;;;;;;;8.80;6.77;;;12.60;99.90;;;;;;1039625;28;20018;-63
2022/04/19 01:50:17;;;;;;;8.30;7.10;;;12.50;99.90;;;;;;1039555;28;20022;-63
2022/04/19 01:50:47;;;;;;;9.00;6.93;;;12.60;99.90;;;;;;1039625;28;20014;-65
2022/04/19 01:51:18;;;;;;;7.57;6.20;;;12.60;99.90;;;;;;1039739;28;20022;-63
2022/04/19 01:51:49;;;;;;;9.20;6.80;;;12.50;99.90;;;;;;1039534;28;20100;-63
2022/04/19 01:52:20;;;;;;;9.05;6.95;;;12.50;99.90;;;;;;1039745;28;20092;-65
2022/04/19 01:52:53;;;;;;;7.30;6.00;;;12.50;99.90;;;;;;1039508;28;20112;-62
2022/04/19 01:53:23;;;;;;;9.45;6.88;;;12.50;99.90;;;;;;1039665;28;20010;-63
2022/04/19 01:53:57;;;;;;;10.13;7.37;;;12.50;99.90;;;;;;1039690;28;20017;-63
2022/04/19 01:54:29;;;;;;;8.65;6.78;;;12.50;99.90;;;;;;1039138;28;20021;-63
2022/04/19 01:54:59;;;;;;;8.50;6.95;;;12.50;99.90;;;;;;1039279;28;20024;-63
2022/04/19 01:55:30;;;;;;;9.33;6.53;;;12.50;99.90;;;;;;1039147;28;20014;-64
2022/04/19 01:56:00;;;;;;;6.97;6.20;;;12.50;99.90;;;;;;1039388;28;20445;-64
2022/04/19 01:56:32;;;;;;;9.20;6.37;;;12.50;99.90;;;;;;1039307;28;20119;-66
2022/04/19 01:57:03;;;;;;;7.40;6.53;;;12.50;99.90;;;;;;1039496;28;20069;-63
2022/04/19 01:57:34;;;;;;;7.32;6.55;;;12.50;99.90;;;;;;1039058;28;20163;-64
2022/04/19 01:58:05;;;;;;;9.52;6.95;;;12.50;99.90;;;;;;1039310;28;20024;-63
2022/04/19 01:58:37;;;;;;;7.73;6.10;;;12.50;99.90;;;;;;1035297;28;20045;-65
2022/04/19 01:59:07;;;;;;;7.82;7.03;;;12.40;99.90;;;;;;1035204;28;20543;-64
2022/04/19 01:59:39;;;;;;;7.28;6.50;;;12.40;99.90;;;;;;1035232;28;20009;-63
2022/04/19 02:00:11;;;;;;;7.07;5.90;;;12.50;99.90;;;;;;1035563;28;20014;-65
2022/04/19 02:00:41;;;;;;;7.85;6.75;;;12.40;99.90;;;;;;1035445;28;20011;-64
2022/04/19 02:01:12;;;;;;;7.33;6.27;;;12.50;99.90;;;;;;1035511;28;20018;-63
2022/04/19 02:01:44;;;;;;;8.07;6.07;;;12.40;99.90;;;;;;1035456;28;20017;-63
2022/04/19 02:02:14;;;;;;;9.65;6.60;;;12.40;99.90;;;;;;1038262;28;20092;-64
2022/04/19 02:02:46;;;;;;;9.87;7.13;;;12.40;99.90;;;;;;1039058;28;20014;-63
2022/04/19 02:03:17;;;;;;;8.85;6.82;;;12.40;99.90;;;;;;1039316;28;20056;-63
2022/04/19 02:03:48;;;;;;;8.57;6.65;;;12.40;99.90;;;;;;1039356;28;20012;-63
2022/04/19 02:04:18;;;;;;;7.90;6.70;;;12.40;99.90;;;;;;1035492;28;20018;-63
2022/04/19 02:04:52;;;;;;;8.17;6.87;;;12.40;99.90;;;;;;1039137;28;20064;-62
2022/04/19 02:05:23;;;;;;;7.60;6.63;;;12.40;99.90;;;;;;1039428;28;20009;-63
2022/04/19 02:05:53;;;;;;;7.50;6.63;;;12.40;99.90;;;;;;1034963;28;20525;-64
2022/04/19 02:06:24;;;;;;;9.83;7.00;;;12.40;99.90;;;;;;1031214;28;20515;-63
2022/04/19 02:06:56;;;;;;;7.43;6.63;;;12.40;99.90;;;;;;1030980;28;20018;-63
2022/04/19 02:07:27;;;;;;;8.05;7.15;;;12.40;99.90;;;;;;1031443;28;20014;-64
2022/04/19 02:07:57;;;;;;;7.60;6.83;;;12.40;99.90;;;;;;1035312;28;20037;-64
2022/04/19 02:08:29;;;;;;;7.03;6.33;;;12.40;99.90;;;;;;1035411;28;20093;-64
2022/04/19 02:09:03;;;;;;;8.82;6.65;;;12.40;99.90;;;;;;1035661;28;20014;-62
2022/04/19 02:09:34;;;;;;;8.75;6.72;;;12.40;99.90;;;;;;1038800;28;20048;-62
2022/04/19 02:10:06;;;;;;;7.00;6.22;;;12.40;99.90;;;;;;1039424;28;20020;-64
2022/04/19 02:10:37;;;;;;;7.93;6.50;;;12.40;99.90;;;;;;1039328;28;20013;-64
2022/04/19 02:11:08;;;;;;;7.55;6.20;;;12.40;99.90;;;;;;1034957;28;20018;-63
2022/04/19 02:11:39;;;;;;;10.60;5.97;;;12.40;99.90;;;;;;1035236;28;20018;-63
2022/04/19 02:12:10;;;;;;;7.83;6.10;;;12.40;99.90;;;;;;1035145;28;20048;-63
2022/04/19 02:12:40;;;;;;;7.50;6.03;;;12.40;99.90;;;;;;1035352;28;20015;-65
2022/04/19 02:13:13;;;;;;;7.87;7.07;;;12.40;99.90;;;;;;1039290;28;20096;-64
2022/04/19 02:13:43;;;;;;;6.90;6.18;;;12.40;99.90;;;;;;1038401;28;20380;-64
2022/04/19 02:14:14;;;;;;;9.77;6.43;;;12.40;99.90;;;;;;1035528;28;20141;-63
2022/04/19 02:14:44;;;;;;;7.83;6.97;;;12.40;99.90;;;;;;1035596;28;20414;-64
2022/04/19 02:15:15;;;;;;;7.23;5.93;;;12.40;99.90;;;;;;1035466;28;20361;-63
2022/04/19 02:15:46;;;;;;;10.55;6.80;;;12.40;99.90;;;;;;1035474;28;20025;-65
2022/04/19 02:16:17;;;;;;;8.77;6.20;;;12.40;99.90;;;;;;1039088;28;20153;-63
2022/04/19 02:16:48;;;;;;;7.55;6.72;;;12.40;99.90;;;;;;1039270;28;20422;-64
2022/04/19 02:17:20;;;;;;;7.27;6.20;;;12.40;99.90;;;;;;1039206;28;20768;-63
2022/04/19 02:17:51;;;;;;;7.95;5.80;;;12.40;99.90;;;;;;1039239;28;20018;-64
2022/04/19 02:18:21;;;;;;;7.33;6.03;;;12.40;99.90;;;;;;1035072;28;20092;-62
2022/04/19 02:18:52;;;;;;;8.63;6.87;;;12.40;99.90;;;;;;1035596;28;20044;-63
2022/04/19 02:19:23;;;;;;;6.65;5.82;;;12.40;99.90;;;;;;1039258;28;20020;-63
2022/04/19 02:20:05;;;;;;;7.03;6.17;;;12.40;99.90;;;;;;1035194;28;20022;-63
2022/04/19 02:20:35;;;;;;;7.30;6.15;;;12.40;99.90;;;;;;1039013;28;20032;-64
2022/04/19 02:21:06;;;;;;;7.20;6.47;;;12.40;99.90;;;;;;1035125;28;20022;-65
2022/04/19 02:21:36;;;;;;;8.43;6.70;;;12.40;99.90;;;;;;1035091;28;20089;-63
2022/04/19 02:22:09;;;;;;;8.60;6.93;;;12.30;99.90;;;;;;1035256;28;20505;-64
2022/04/19 02:22:40;;;;;;;7.60;6.35;;;12.30;99.90;;;;;;1039323;28;20006;-64
2022/04/19 02:23:13;;;;;;;7.22;6.18;;;12.30;99.90;;;;;;1039584;28;20033;-64
2022/04/19 02:23:43;;;;;;;7.40;6.07;;;12.30;99.90;;;;;;1039555;28;20010;-64
2022/04/19 02:24:14;;;;;;;7.97;6.77;;;12.30;99.90;;;;;;1039580;28;20013;-64
2022/04/19 02:24:44;;;;;;;7.43;6.67;;;12.30;99.90;;;;;;1039030;28;20109;-63
2022/04/19 02:25:16;;;;;;;7.63;6.10;;;12.30;99.90;;;;;;1039333;28;20071;-64
2022/04/19 02:25:51;;;;;;;7.60;5.68;;;12.30;99.90;;;;;;1039016;28;20409;-64
2022/04/19 02:26:24;;;;;;;7.25;6.13;;;12.30;99.90;;;;;;1036089;28;20072;-63
2022/04/19 02:26:54;;;;;;;8.13;5.88;;;12.30;99.90;;;;;;1039196;28;20456;-63
2022/04/19 02:27:26;;;;;;;8.23;5.97;;;12.30;99.90;;;;;;1039242;28;20529;-63
2022/04/19 02:27:57;;;;;;;7.85;6.35;;;12.30;99.90;;;;;;1039336;28;20020;-63
2022/04/19 02:28:27;;;;;;;7.20;5.80;;;12.30;99.90;;;;;;1039164;28;20032;-64
2022/04/19 02:28:58;;;;;;;7.53;5.70;;;12.30;99.90;;;;;;1039243;28;20021;-63
2022/04/19 02:29:28;;;;;;;7.13;5.93;;;12.30;99.90;;;;;;1039246;28;20013;-64
2022/04/19 02:30:05;;;;;;;6.57;5.53;;;12.30;99.90;;;;;;1039417;28;20643;-64
2022/04/19 02:30:35;;;;;;;7.63;6.20;;;12.20;99.90;;;;;;1039052;28;20079;-65
2022/04/19 02:31:08;;;;;;;8.00;5.75;;;12.20;99.90;;;;;;1039228;28;20199;-64
2022/04/19 02:31:39;;;;;;;6.97;6.30;;;12.20;99.90;;;;;;1039172;28;20016;-64
2022/04/19 02:32:09;;;;;;;7.93;6.60;;;12.20;99.90;;;;;;1039186;28;20026;-63
2022/04/19 02:32:45;;;;;;;8.07;6.10;;;12.20;99.90;;;;;;1039695;28;20022;-63
2022/04/19 02:33:16;;;;;;;7.40;5.93;;;12.20;99.90;;;;;;1039499;28;20029;-63
2022/04/19 02:33:46;;;;;;;7.67;6.20;;;12.20;99.90;;;;;;1039578;28;20018;-63
2022/04/19 02:34:18;;;;;;;8.03;6.63;;;12.20;99.90;;;;;;1039579;28;20010;-63
2022/04/19 02:34:48;;;;;;;7.30;6.30;;;12.20;99.90;;;;;;1039101;28;20032;-64
2022/04/19 02:35:20;;;;;;;7.10;6.40;;;12.20;99.90;;;;;;1039296;28;20045;-63
2022/04/19 02:35:52;;;;;;;7.65;5.70;;;12.20;99.90;;;;;;1039792;28;20030;-63
2022/04/19 02:36:23;;;;;;;9.40;6.70;;;12.20;99.90;;;;;;1037352;28;20062;-63
2022/04/19 02:36:53;;;;;;;7.63;6.13;;;12.20;99.90;;;;;;1035482;28;20068;-64
2022/04/19 02:37:24;;;;;;;7.47;5.50;;;12.20;99.90;;;;;;1035449;28;20058;-66
2022/04/19 02:37:57;;;;;;;6.30;5.70;;;12.20;99.90;;;;;;1035419;28;20069;-63
2022/04/19 02:38:27;;;;;;;6.57;5.68;;;12.20;99.90;;;;;;1035391;28;20017;-63
2022/04/19 02:38:59;;;;;;;8.10;6.70;;;12.20;99.90;;;;;;1039264;28;20113;-62
2022/04/19 02:39:30;;;;;;;9.35;6.43;;;12.20;99.90;;;;;;1039055;28;20021;-63
2022/04/19 02:40:01;;;;;;;6.87;5.70;;;12.20;99.90;;;;;;1039362;28;20156;-63
2022/04/19 02:40:31;;;;;;;7.25;5.65;;;12.20;99.90;;;;;;1038737;28;20024;-62
2022/04/19 02:41:02;;;;;;;7.17;5.43;;;12.10;99.90;;;;;;1035093;28;20018;-62
2022/04/19 02:41:32;;;;;;;9.10;6.00;;;12.10;99.90;;;;;;1035029;28;20377;-64
2022/04/19 02:42:04;;;;;;;6.77;5.73;;;12.10;99.90;;;;;;1035233;28;20025;-63
2022/04/19 02:42:36;;;;;;;7.10;5.88;;;12.10;99.90;;;;;;1035020;28;20668;-64
2022/04/19 02:43:06;;;;;;;6.53;5.90;;;12.10;99.90;;;;;;1035222;28;20014;-65
2022/04/19 02:43:38;;;;;;;6.83;6.10;;;12.10;99.90;;;;;;1035865;28;20010;-64
2022/04/19 02:44:08;;;;;;;6.80;5.47;;;12.10;99.90;;;;;;1039057;28;20022;-65
2022/04/19 02:44:39;;;;;;;7.57;5.83;;;12.10;99.90;;;;;;1039158;28;20021;-64
2022/04/19 02:45:09;;;;;;;6.27;5.67;;;12.10;99.90;;;;;;1039176;28;20017;-64